createdAt,value
2018-12-04T00:01:54.160Z,6.47
2018-12-04T00:04:23.278Z,6.17
2018-12-04T00:06:51.829Z,6.30
2018-12-04T00:09:20.369Z,8.33
2018-12-04T00:11:49.075Z,5.80
2018-12-04T00:14:18.454Z,7.80
2018-12-04T00:16:47.465Z,4.60
2018-12-04T00:19:16.573Z,5.60
2018-12-04T00:21:45.637Z,4.23
2018-12-04T00:24:14.671Z,8.93
2018-12-04T00:26:43.719Z,6.53
2018-12-04T00:29:13.272Z,7.47
2018-12-04T00:31:42.873Z,8.37
2018-12-04T00:34:12.386Z,8.07
2018-12-04T00:36:41.582Z,6.10
2018-12-04T00:39:10.619Z,5.97
2018-12-04T00:41:39.711Z,7.27
2018-12-04T00:44:08.865Z,5.47
2018-12-04T00:46:38.184Z,7.07
2018-12-04T00:49:07.540Z,9.13
2018-12-04T00:51:36.704Z,9.03
2018-12-04T00:54:05.781Z,3.93
2018-12-04T00:56:34.836Z,12.33
2018-12-04T00:59:04.185Z,7.60
2018-12-04T01:01:33.268Z,6.73
2018-12-04T01:04:02.421Z,10.97
2018-12-04T01:06:31.439Z,7.20
2018-12-04T01:09:00.486Z,5.13
2018-12-04T01:11:29.737Z,4.97
2018-12-04T01:13:58.815Z,5.83
2018-12-04T01:16:27.920Z,5.97
2018-12-04T01:18:56.945Z,6.83
2018-12-04T01:21:25.965Z,6.20
2018-12-04T01:23:55.500Z,5.23
2018-12-04T01:26:25.164Z,6.47
2018-12-04T01:28:54.168Z,8.80
2018-12-04T01:31:23.242Z,6.70
2018-12-04T01:33:52.470Z,4.50
2018-12-04T01:36:21.669Z,7.73
2018-12-04T01:38:50.934Z,5.43
2018-12-04T01:41:19.964Z,7.53
2018-12-04T01:43:48.988Z,8.23
2018-12-04T01:46:18.153Z,10.40
2018-12-04T01:48:47.149Z,6.30
2018-12-04T01:51:16.263Z,8.83
2018-12-04T01:53:45.300Z,6.50
2018-12-04T01:56:14.738Z,9.53
2018-12-04T01:58:43.751Z,8.40
2018-12-04T02:01:12.829Z,9.77
2018-12-04T02:03:41.890Z,10.03
2018-12-04T02:06:11.399Z,7.63
2018-12-04T02:08:40.522Z,13.47
2018-12-04T02:11:09.839Z,11.77
2018-12-04T02:13:39.119Z,10.23
2018-12-04T02:16:08.211Z,8.17
2018-12-04T02:18:37.889Z,7.93
2018-12-04T02:21:07.440Z,8.97
2018-12-04T02:23:36.593Z,9.37
2018-12-04T02:26:05.815Z,8.10
2018-12-04T02:28:42.992Z,6.70
2018-12-04T02:31:12.046Z,8.47
2018-12-04T02:33:41.251Z,8.43
2018-12-04T02:36:10.599Z,10.53
2018-12-04T02:38:39.769Z,5.73
2018-12-04T02:41:08.833Z,9.37
2018-12-04T02:43:37.867Z,9.10
2018-12-04T02:46:07.357Z,9.33
2018-12-04T02:48:36.686Z,11.50
2018-12-04T02:51:05.724Z,10.03
2018-12-04T02:53:35.103Z,8.90
2018-12-04T02:56:04.258Z,7.47
2018-12-04T02:58:34.084Z,6.73
2018-12-04T03:01:03.107Z,9.57
2018-12-04T03:03:32.393Z,9.77
2018-12-04T03:06:01.488Z,6.43
2018-12-04T03:08:31.224Z,9.33
2018-12-04T03:11:00.231Z,11.87
2018-12-04T03:13:29.505Z,10.20
2018-12-04T03:15:58.581Z,11.70
2018-12-04T03:18:27.582Z,10.27
2018-12-04T03:20:57.249Z,11.23
2018-12-04T03:23:26.293Z,17.17
2018-12-04T03:25:55.352Z,13.00
2018-12-04T03:28:24.435Z,16.17
2018-12-04T03:30:53.454Z,11.47
2018-12-04T03:33:35.983Z,11.90
2018-12-04T03:36:05.116Z,11.90
2018-12-04T03:38:34.145Z,18.50
2018-12-04T03:41:03.415Z,13.17
2018-12-04T03:43:32.470Z,17.10
2018-12-04T03:46:01.489Z,15.37
2018-12-04T03:48:30.626Z,15.70
2018-12-04T03:50:59.778Z,15.87
2018-12-04T03:53:28.813Z,15.20
2018-12-04T03:55:57.897Z,16.90
2018-12-04T03:58:26.959Z,15.03
2018-12-04T04:00:55.990Z,11.00
2018-12-04T04:03:26.548Z,11.77
2018-12-04T04:05:55.553Z,13.27
2018-12-04T04:08:25.698Z,15.60
2018-12-04T04:10:54.948Z,16.67
2018-12-04T04:13:24.142Z,14.47
2018-12-04T04:15:53.692Z,17.27
2018-12-04T04:18:22.720Z,16.30
2018-12-04T04:20:51.886Z,13.83
2018-12-04T04:23:20.908Z,14.10
2018-12-04T04:25:49.998Z,15.93
2018-12-04T04:28:19.002Z,17.17
2018-12-04T04:30:48.029Z,16.00
2018-12-04T04:33:17.057Z,13.60
2018-12-04T04:35:46.150Z,16.20
2018-12-04T04:38:15.212Z,17.23
2018-12-04T04:40:44.240Z,14.10
2018-12-04T04:43:13.439Z,14.90
2018-12-04T04:45:43.166Z,10.83
2018-12-04T04:48:12.471Z,10.70
2018-12-04T04:50:41.570Z,14.37
2018-12-04T04:53:10.815Z,12.70
2018-12-04T04:55:40.046Z,11.53
2018-12-04T04:58:09.277Z,16.63
2018-12-04T05:00:38.769Z,14.63
2018-12-04T05:03:07.960Z,15.13
2018-12-04T05:05:37.296Z,14.83
2018-12-04T05:08:06.393Z,11.77
2018-12-04T05:10:35.448Z,12.63
2018-12-04T05:13:04.635Z,10.33
2018-12-04T05:15:33.882Z,13.30
2018-12-04T05:18:02.971Z,8.23
2018-12-04T05:20:31.987Z,8.03
2018-12-04T05:23:01.941Z,7.00
2018-12-04T05:25:31.323Z,7.57
2018-12-04T05:28:00.448Z,11.90
2018-12-04T05:30:29.659Z,10.20
2018-12-04T05:32:58.678Z,9.40
2018-12-04T05:35:28.379Z,9.60
2018-12-04T05:37:57.418Z,10.53
2018-12-04T05:40:27.185Z,9.30
2018-12-04T05:42:56.274Z,11.70
2018-12-04T05:45:25.302Z,8.80
2018-12-04T05:47:54.313Z,10.03
2018-12-04T05:50:23.341Z,8.13
2018-12-04T05:53:03.814Z,9.43
2018-12-04T05:55:32.877Z,9.20
2018-12-04T05:58:01.939Z,10.07
2018-12-04T06:00:31.296Z,15.67
2018-12-04T06:03:00.376Z,12.70
2018-12-04T06:06:03.338Z,12.73
2018-12-04T06:08:32.415Z,14.87
2018-12-04T06:11:01.910Z,13.63
2018-12-04T06:13:31.863Z,10.90
2018-12-04T06:16:00.932Z,14.60
2018-12-04T06:18:29.989Z,10.53
2018-12-04T06:20:59.145Z,8.93
2018-12-04T06:23:28.274Z,8.00
2018-12-04T06:25:57.294Z,14.83
2018-12-04T06:28:26.484Z,12.47
2018-12-04T06:31:02.215Z,11.60
2018-12-04T06:33:31.474Z,15.20
2018-12-04T06:36:00.851Z,14.13
2018-12-04T06:38:29.904Z,11.77
2018-12-04T06:40:59.244Z,10.63
2018-12-04T06:43:28.337Z,10.27
2018-12-04T06:45:57.636Z,11.73
2018-12-04T06:48:26.701Z,11.37
2018-12-04T06:50:55.766Z,11.10
2018-12-04T06:53:24.843Z,12.33
2018-12-04T06:55:54.735Z,11.83
2018-12-04T06:58:24.375Z,11.97
2018-12-04T07:00:53.402Z,19.27
2018-12-04T07:03:22.442Z,16.17
2018-12-04T07:05:55.349Z,19.57
2018-12-04T07:08:24.933Z,16.50
2018-12-04T07:10:53.975Z,13.17
2018-12-04T07:13:23.852Z,12.03
2018-12-04T07:15:53.122Z,13.43
2018-12-04T07:18:22.383Z,12.20
2018-12-04T07:20:51.544Z,15.03
2018-12-04T07:23:21.016Z,10.67
2018-12-04T07:25:50.087Z,10.87
2018-12-04T07:28:19.179Z,11.60
2018-12-04T07:30:48.262Z,13.13
2018-12-04T07:33:17.406Z,12.17
2018-12-04T07:35:46.569Z,11.60
2018-12-04T07:38:16.448Z,14.47
2018-12-04T07:40:45.657Z,14.17
2018-12-04T07:43:15.104Z,13.60
2018-12-04T07:45:44.285Z,12.80
2018-12-04T07:48:13.340Z,9.93
2018-12-04T07:50:42.468Z,11.83
2018-12-04T07:53:11.774Z,12.70
2018-12-04T07:55:43.651Z,11.57
2018-12-04T07:58:12.848Z,11.20
2018-12-04T08:00:42.137Z,10.10
2018-12-04T08:03:11.464Z,12.37
2018-12-04T08:05:40.521Z,13.87
2018-12-04T08:08:09.835Z,9.93
2018-12-04T08:10:38.877Z,11.00
2018-12-04T08:13:08.251Z,13.63
2018-12-04T08:15:37.443Z,11.87
2018-12-04T08:18:06.675Z,11.87
2018-12-04T08:20:35.739Z,11.83
2018-12-04T08:23:04.812Z,12.63
2018-12-04T08:25:33.951Z,10.60
2018-12-04T08:28:03.145Z,12.00
2018-12-04T08:30:32.183Z,13.47
2018-12-04T08:33:01.264Z,13.07
2018-12-04T08:35:30.457Z,15.53
2018-12-04T08:37:59.630Z,10.33
2018-12-04T08:40:28.768Z,14.03
2018-12-04T08:42:57.947Z,12.43
2018-12-04T08:45:27.112Z,11.90
2018-12-04T08:47:56.271Z,20.40
2018-12-04T08:50:25.300Z,15.43
2018-12-04T08:52:54.402Z,15.37
2018-12-04T08:55:23.449Z,14.37
2018-12-04T08:57:52.480Z,14.13
2018-12-04T09:00:21.573Z,15.03
2018-12-04T09:02:50.639Z,16.13
2018-12-04T09:05:19.993Z,13.93
2018-12-04T09:07:49.104Z,14.10
2018-12-04T09:10:18.386Z,13.63
2018-12-04T09:12:48.255Z,14.27
2018-12-04T09:15:17.475Z,10.23
2018-12-04T09:17:46.631Z,12.80
2018-12-04T09:20:16.452Z,12.10
2018-12-04T09:22:45.632Z,16.23
2018-12-04T09:25:14.795Z,10.73
2018-12-04T09:27:43.949Z,11.43
2018-12-04T09:30:13.551Z,16.53
2018-12-04T09:32:42.935Z,14.17
2018-12-04T09:35:12.069Z,14.43
2018-12-04T09:37:41.158Z,10.97
2018-12-04T09:40:10.970Z,11.17
2018-12-04T09:42:40.115Z,13.37
2018-12-04T09:45:09.497Z,11.27
2018-12-04T09:47:38.637Z,11.97
2018-12-04T09:50:08.866Z,13.27
2018-12-04T09:52:38.126Z,11.73
2018-12-04T09:55:07.564Z,11.10
2018-12-04T09:57:36.609Z,12.60
2018-12-04T10:00:07.432Z,12.07
2018-12-04T10:02:36.623Z,13.67
2018-12-04T10:05:06.132Z,12.93
2018-12-04T10:07:35.434Z,10.40
2018-12-04T10:10:05.497Z,11.17
2018-12-04T10:12:34.586Z,10.63
2018-12-04T10:15:04.037Z,9.87
2018-12-04T10:17:33.421Z,12.27
2018-12-04T10:20:02.519Z,13.57
2018-12-04T10:22:31.685Z,9.10
2018-12-04T10:25:00.864Z,9.30
2018-12-04T10:27:30.555Z,15.93
2018-12-04T10:30:00.389Z,8.93
2018-12-04T10:32:29.538Z,9.13
2018-12-04T10:34:59.938Z,10.53
2018-12-04T10:37:29.956Z,8.17
2018-12-04T10:39:59.140Z,8.83
2018-12-04T10:42:28.533Z,9.03
2018-12-04T10:44:57.644Z,9.27
2018-12-04T10:47:26.868Z,7.80
2018-12-04T10:49:56.015Z,6.87
2018-12-04T10:52:25.113Z,6.33
2018-12-04T10:54:54.193Z,7.70
2018-12-04T10:57:23.426Z,6.10
2018-12-04T10:59:52.467Z,8.17
2018-12-04T11:02:25.349Z,7.70
2018-12-04T11:04:54.418Z,7.93
2018-12-04T11:07:23.510Z,7.50
2018-12-04T11:09:53.194Z,6.87
2018-12-04T11:12:22.262Z,7.97
2018-12-04T11:14:51.321Z,5.47
2018-12-04T11:17:20.556Z,4.80
2018-12-04T11:19:49.609Z,8.27
2018-12-04T11:22:18.697Z,6.27
2018-12-04T11:24:47.741Z,4.43
2018-12-04T11:27:16.879Z,6.50
2018-12-04T11:29:45.963Z,5.70
2018-12-04T11:32:15.201Z,6.90
2018-12-04T11:34:44.398Z,7.03
2018-12-04T11:37:13.592Z,8.90
2018-12-04T11:39:42.827Z,4.17
2018-12-04T11:42:14.144Z,7.43
2018-12-04T11:44:43.315Z,6.50
2018-12-04T11:47:12.403Z,3.80
2018-12-04T11:49:41.443Z,4.53
2018-12-04T11:52:10.643Z,4.63
2018-12-04T11:54:39.804Z,4.83
2018-12-04T11:57:09.033Z,8.20
2018-12-04T11:59:38.143Z,6.07
2018-12-04T12:02:10.797Z,5.07
2018-12-04T12:04:38.533Z,3.90
2018-12-04T12:07:07.711Z,5.10
2018-12-04T12:09:36.882Z,5.60
2018-12-04T12:12:06.266Z,3.90
2018-12-04T12:14:35.285Z,5.47
2018-12-04T12:17:04.551Z,5.17
2018-12-04T12:19:33.619Z,6.23
2018-12-04T12:22:02.783Z,5.43
2018-12-04T12:24:31.816Z,6.23
2018-12-04T12:27:01.007Z,4.70
2018-12-04T12:29:30.067Z,6.40
2018-12-04T12:31:59.164Z,7.97
2018-12-04T12:34:28.295Z,29.83
2018-12-04T12:36:57.332Z,7.30
2018-12-04T12:39:26.639Z,7.93
2018-12-04T12:41:55.794Z,5.43
2018-12-04T12:44:24.853Z,7.50
2018-12-04T12:46:54.163Z,7.53
2018-12-04T12:49:23.976Z,8.07
2018-12-04T12:51:53.014Z,8.10
2018-12-04T12:54:22.342Z,4.17
2018-12-04T12:56:51.557Z,6.30
2018-12-04T12:59:27.598Z,8.37
2018-12-04T13:01:56.858Z,4.87
2018-12-04T13:04:25.904Z,6.73
2018-12-04T13:06:55.177Z,6.50
2018-12-04T13:09:24.263Z,3.97
2018-12-04T13:11:53.445Z,6.83
2018-12-04T13:14:22.964Z,8.90
2018-12-04T13:16:52.033Z,6.20
2018-12-04T13:19:21.417Z,6.47
2018-12-04T13:21:50.441Z,5.13
2018-12-04T13:24:20.385Z,4.73
2018-12-04T13:26:49.550Z,3.87
2018-12-04T13:29:18.611Z,5.60
2018-12-04T13:31:47.695Z,6.63
2018-12-04T13:34:16.839Z,8.80
2018-12-04T13:36:45.940Z,6.47
2018-12-04T13:39:14.989Z,4.83
2018-12-04T13:41:44.135Z,4.67
2018-12-04T13:44:13.209Z,3.90
2018-12-04T13:46:42.363Z,4.30
2018-12-04T13:49:11.512Z,3.83
2018-12-04T13:51:40.904Z,5.73
2018-12-04T13:54:09.943Z,5.23
2018-12-04T13:56:39.300Z,4.20
2018-12-04T13:59:08.375Z,3.87
2018-12-04T14:01:37.622Z,5.47
2018-12-04T14:06:40.951Z,6.33
2018-12-04T14:09:10.329Z,6.97
2018-12-04T14:11:39.482Z,4.50
2018-12-04T14:14:08.622Z,7.00
2018-12-04T14:16:38.581Z,3.93
2018-12-04T14:19:07.813Z,3.77
2018-12-04T14:21:37.014Z,5.10
2018-12-04T14:24:06.224Z,5.10
2018-12-04T14:26:35.386Z,3.97
2018-12-04T14:29:04.595Z,5.33
2018-12-04T14:31:33.849Z,8.33
2018-12-04T14:34:03.023Z,5.47
2018-12-04T14:36:32.213Z,10.90
2018-12-04T14:39:01.401Z,7.77
2018-12-04T14:41:30.405Z,4.43
2018-12-04T14:43:59.641Z,3.40
2018-12-04T14:46:28.821Z,6.93
2018-12-04T14:48:58.131Z,9.03
2018-12-04T14:51:27.424Z,5.03
2018-12-04T14:53:57.689Z,4.57
2018-12-04T14:56:26.844Z,5.30
2018-12-04T14:58:55.987Z,4.70
2018-12-04T15:01:25.226Z,6.53
2018-12-04T15:03:54.349Z,4.33
2018-12-04T15:06:23.403Z,5.47
2018-12-04T15:08:52.582Z,4.20
2018-12-04T15:11:21.877Z,2.63
2018-12-04T15:13:50.991Z,5.00
2018-12-04T15:16:21.360Z,3.17
2018-12-04T15:18:50.476Z,3.40
2018-12-04T15:21:19.627Z,2.80
2018-12-04T15:23:48.793Z,2.10
2018-12-04T15:26:18.076Z,4.60
2018-12-04T15:28:47.325Z,6.80
2018-12-04T15:31:17.207Z,9.27
2018-12-04T15:33:47.088Z,5.97
2018-12-04T15:36:16.633Z,5.70
2018-12-04T15:38:46.222Z,4.87
2018-12-04T15:41:15.479Z,6.00
2018-12-04T15:43:44.580Z,4.67
2018-12-04T15:46:14.600Z,5.50
2018-12-04T15:48:43.754Z,3.03
2018-12-04T15:51:12.875Z,5.20
2018-12-04T15:53:42.250Z,4.20
2018-12-04T15:56:11.453Z,3.83
2018-12-04T15:58:40.627Z,4.63
2018-12-04T16:01:09.902Z,2.87
2018-12-04T16:03:38.954Z,4.00
2018-12-04T16:06:08.153Z,2.30
2018-12-04T16:08:37.205Z,2.87
2018-12-04T16:11:06.287Z,2.43
2018-12-04T16:13:38.474Z,2.37
2018-12-04T16:16:07.863Z,3.30
2018-12-04T16:18:37.030Z,2.87
2018-12-04T16:21:06.164Z,3.13
2018-12-04T16:23:35.577Z,6.27
2018-12-04T16:26:04.774Z,5.57
2018-12-04T16:28:33.899Z,5.37
2018-12-04T16:31:03.363Z,6.70
2018-12-04T16:33:32.416Z,5.77
2018-12-04T16:36:01.557Z,7.67
2018-12-04T16:38:31.421Z,5.47
2018-12-04T16:41:00.486Z,5.47
2018-12-04T16:43:30.979Z,5.77
2018-12-04T16:46:00.011Z,7.23
2018-12-04T16:48:29.142Z,5.43
2018-12-04T16:50:58.222Z,6.57
2018-12-04T16:53:31.286Z,11.07
2018-12-04T16:56:00.422Z,10.00
2018-12-04T16:58:30.013Z,9.37
2018-12-04T17:00:59.384Z,9.73
2018-12-04T17:03:28.590Z,6.97
2018-12-04T17:05:59.150Z,9.30
2018-12-04T17:08:28.341Z,7.10
2018-12-04T17:10:58.220Z,7.03
2018-12-04T17:13:27.374Z,11.10
2018-12-04T17:15:57.216Z,12.00
2018-12-04T17:18:26.592Z,13.77
2018-12-04T17:20:55.713Z,8.63
2018-12-04T17:23:24.954Z,8.53
2018-12-04T17:25:54.090Z,8.07
2018-12-04T17:28:23.194Z,12.53
2018-12-04T17:30:52.238Z,9.20
2018-12-04T17:33:21.578Z,9.40
2018-12-04T17:35:51.504Z,13.53
2018-12-04T17:38:20.575Z,11.20
2018-12-04T17:40:50.317Z,10.17
2018-12-04T17:43:19.623Z,9.53
2018-12-04T17:45:48.758Z,9.50
2018-12-04T17:48:17.950Z,10.10
2018-12-04T17:50:47.020Z,9.60
2018-12-04T17:53:16.294Z,11.87
2018-12-04T17:55:48.381Z,9.53
2018-12-04T17:58:17.491Z,11.33
2018-12-04T18:00:46.790Z,9.10
2018-12-04T18:03:16.113Z,8.70
2018-12-04T18:05:45.180Z,10.03
2018-12-04T18:08:14.208Z,8.77
2018-12-04T18:10:43.499Z,12.13
2018-12-04T18:13:13.282Z,9.03
2018-12-04T18:15:42.694Z,9.50
2018-12-04T18:18:11.746Z,9.10
2018-12-04T18:20:41.310Z,10.53
2018-12-04T18:23:10.433Z,11.17
2018-12-04T18:25:39.776Z,10.93
2018-12-04T18:28:09.311Z,10.80
2018-12-04T18:30:38.557Z,12.93
2018-12-04T18:33:13.952Z,12.17
2018-12-04T18:35:43.107Z,11.37
2018-12-04T18:38:12.266Z,11.97
2018-12-04T18:40:41.421Z,10.33
2018-12-04T18:43:10.710Z,9.73
2018-12-04T18:45:40.362Z,10.93
2018-12-04T18:48:09.529Z,10.10
2018-12-04T18:50:38.770Z,11.00
2018-12-04T18:53:07.994Z,11.73
2018-12-04T18:55:37.199Z,10.30
2018-12-04T18:58:06.546Z,11.17
2018-12-04T19:00:36.051Z,10.20
2018-12-04T19:03:05.413Z,12.20
2018-12-04T19:05:34.724Z,11.37
2018-12-04T19:08:05.616Z,10.83
2018-12-04T19:10:35.570Z,13.67
2018-12-04T19:13:04.656Z,11.97
2018-12-04T19:15:33.830Z,10.73
2018-12-04T19:18:02.900Z,11.13
2018-12-04T19:20:32.080Z,13.57
2018-12-04T19:23:01.299Z,15.70
2018-12-04T19:25:30.427Z,12.77
2018-12-04T19:28:00.464Z,14.00
2018-12-04T19:30:29.768Z,13.17
2018-12-04T19:32:58.844Z,12.80
2018-12-04T19:35:27.900Z,13.03
2018-12-04T19:37:57.312Z,15.53
2018-12-04T19:40:26.555Z,13.20
2018-12-04T19:42:55.682Z,14.37
2018-12-04T19:45:24.953Z,16.70
2018-12-04T19:47:54.001Z,12.30
2018-12-04T19:50:23.722Z,12.30
2018-12-04T19:52:52.807Z,11.40
2018-12-04T19:55:22.091Z,11.53
2018-12-04T19:57:51.128Z,9.50
2018-12-04T20:00:20.464Z,11.00
2018-12-04T20:02:49.550Z,9.90
2018-12-04T20:05:18.667Z,12.97
2018-12-04T20:07:47.711Z,11.57
2018-12-04T20:10:16.956Z,11.50
2018-12-04T20:12:46.095Z,13.83
2018-12-04T20:15:16.130Z,12.63
2018-12-04T20:17:45.619Z,9.63
2018-12-04T20:20:14.764Z,12.63
2018-12-04T20:22:43.991Z,14.60
2018-12-04T20:25:13.064Z,13.57
2018-12-04T20:27:42.132Z,13.53
2018-12-04T20:30:11.254Z,14.27
2018-12-04T20:32:41.570Z,13.53
2018-12-04T20:35:10.667Z,12.03
2018-12-04T20:37:39.764Z,13.33
2018-12-04T20:40:09.013Z,15.97
2018-12-04T20:42:38.119Z,13.00
2018-12-04T20:45:07.822Z,13.20
2018-12-04T20:47:36.899Z,13.33
2018-12-04T20:50:07.429Z,13.50
2018-12-04T20:52:36.481Z,11.40
2018-12-04T20:55:08.959Z,13.13
2018-12-04T20:57:37.271Z,12.37
2018-12-04T21:00:08.975Z,15.13
2018-12-04T21:02:38.844Z,13.50
2018-12-04T21:05:08.653Z,14.93
2018-12-04T21:07:37.787Z,16.87
2018-12-04T21:10:07.587Z,15.97
2018-12-04T21:12:36.654Z,16.90
2018-12-04T21:15:06.876Z,15.77
2018-12-04T21:17:35.963Z,14.67
2018-12-04T21:20:05.558Z,15.73
2018-12-04T21:22:34.781Z,17.47
2018-12-04T21:25:04.592Z,16.63
2018-12-04T21:27:39.124Z,17.13
2018-12-04T21:30:13.924Z,14.77
2018-12-04T21:32:48.496Z,15.70
2018-12-04T21:35:23.061Z,15.33
2018-12-04T21:37:57.518Z,15.17
2018-12-04T21:40:31.929Z,17.07
2018-12-04T21:44:06.250Z,15.67
2018-12-04T21:46:40.761Z,17.07
2018-12-04T21:49:09.862Z,19.60
2018-12-04T21:51:39.336Z,28.20
2018-12-04T21:54:09.283Z,36.53
2018-12-04T21:56:38.362Z,30.70
2018-12-04T21:59:07.530Z,43.63
2018-12-04T22:01:36.719Z,64.63
2018-12-04T22:04:06.490Z,42.27
2018-12-04T22:06:35.633Z,32.47
2018-12-04T22:09:07.092Z,42.20
2018-12-04T22:11:36.266Z,42.93
2018-12-04T22:14:05.495Z,37.30
2018-12-04T22:16:34.548Z,32.67
2018-12-04T22:19:03.697Z,26.93
2018-12-04T22:21:32.965Z,24.33
2018-12-04T22:24:02.120Z,22.20
2018-12-04T22:26:31.815Z,21.30
2018-12-04T22:29:01.799Z,20.30
2018-12-04T22:31:30.847Z,24.90
2018-12-04T22:34:00.259Z,23.10
2018-12-04T22:36:29.304Z,26.53
2018-12-04T22:38:58.517Z,22.63
2018-12-04T22:41:27.613Z,23.10
2018-12-04T22:43:56.648Z,25.53
2018-12-04T22:46:25.755Z,23.33
2018-12-04T22:48:54.954Z,22.13
2018-12-04T22:51:24.108Z,20.17
2018-12-04T22:53:53.165Z,20.97
2018-12-04T22:56:22.246Z,18.60
2018-12-04T22:58:51.331Z,21.53
2018-12-04T23:01:41.203Z,25.60
2018-12-04T23:04:10.558Z,22.00
2018-12-04T23:06:39.641Z,21.50
2018-12-04T23:09:10.753Z,22.33
2018-12-04T23:11:39.935Z,24.10
2018-12-04T23:14:09.118Z,19.77
2018-12-04T23:16:38.412Z,20.63
2018-12-04T23:19:07.504Z,24.07
2018-12-04T23:21:36.612Z,22.60
2018-12-04T23:24:05.940Z,20.47
2018-12-04T23:26:35.156Z,21.43
2018-12-04T23:29:04.608Z,26.30
2018-12-04T23:31:33.675Z,22.63
2018-12-04T23:34:02.784Z,26.03
2018-12-04T23:36:32.051Z,23.10
2018-12-04T23:39:01.328Z,24.47
2018-12-04T23:41:30.633Z,26.27
2018-12-04T23:43:59.644Z,22.93
2018-12-04T23:46:28.698Z,21.37
2018-12-04T23:48:57.791Z,21.90
2018-12-04T23:51:27.074Z,21.67
2018-12-04T23:53:56.265Z,21.57
2018-12-04T23:56:26.035Z,19.60
2018-12-04T23:58:55.133Z,21.97
